createdAt,value
2023-04-17T00:00:57.755Z,9.37713623
2023-04-17T00:01:58.587Z,9.36706543
2023-04-17T00:03:00.197Z,9.346923828
2023-04-17T00:04:01.166Z,9.36706543
2023-04-17T00:05:02.752Z,9.346923828
2023-04-17T00:06:03.510Z,9.316711426
2023-04-17T00:07:04.389Z,9.316711426
2023-04-17T00:08:05.290Z,9.316711426
2023-04-17T00:09:37.639Z,9.316711426
2023-04-17T00:10:38.552Z,9.296569824
2023-04-17T00:11:40.066Z,9.316711426
2023-04-17T00:12:40.911Z,9.336853027
2023-04-17T00:13:42.489Z,9.346923828
2023-04-17T00:14:44.097Z,9.346923828
2023-04-17T00:15:44.970Z,9.36706543
2023-04-17T00:16:46.673Z,9.336853027
2023-04-17T00:17:48.097Z,9.316711426
2023-04-17T00:18:48.962Z,9.306640625
2023-04-17T00:19:50.491Z,9.306640625
2023-04-17T00:20:51.533Z,9.296569824
2023-04-17T00:21:52.526Z,9.296569824
2023-04-17T00:22:54.023Z,9.266357422
2023-04-17T00:23:55.718Z,9.306640625
2023-04-17T00:24:56.565Z,9.316711426
2023-04-17T00:25:58.122Z,9.316711426
2023-04-17T00:26:58.997Z,9.306640625
2023-04-17T00:27:59.757Z,9.296569824
2023-04-17T00:29:01.607Z,9.296569824
2023-04-17T00:30:02.627Z,9.266357422
2023-04-17T00:31:03.462Z,9.296569824
2023-04-17T00:32:04.354Z,9.306640625
2023-04-17T00:33:36.356Z,9.296569824
2023-04-17T00:34:38.052Z,9.266357422
2023-04-17T00:35:38.931Z,9.266357422
2023-04-17T00:36:39.739Z,9.23614502
2023-04-17T00:37:41.101Z,9.226074219
2023-04-17T00:38:41.872Z,9.256286621
2023-04-17T00:39:43.583Z,9.256286621
2023-04-17T00:40:44.629Z,9.23614502
2023-04-17T00:41:45.459Z,9.266357422
2023-04-17T00:42:47.082Z,9.23614502
2023-04-17T00:43:48.613Z,9.256286621
2023-04-17T00:44:50.076Z,9.256286621
2023-04-17T00:45:51.050Z,9.256286621
2023-04-17T00:46:51.811Z,9.256286621
2023-04-17T00:47:53.621Z,9.256286621
2023-04-17T00:48:54.388Z,9.256286621
2023-04-17T00:49:55.257Z,9.266357422
2023-04-17T00:50:57.146Z,9.296569824
2023-04-17T00:51:57.940Z,9.306640625
2023-04-17T00:52:59.566Z,9.296569824
2023-04-17T00:54:00.388Z,9.296569824
2023-04-17T00:55:02.234Z,9.266357422
2023-04-17T00:56:04.198Z,9.266357422
2023-04-17T00:57:05.771Z,9.296569824
2023-04-17T00:58:38.106Z,9.306640625
2023-04-17T00:59:38.931Z,9.306640625
2023-04-17T01:00:40.569Z,9.306640625
2023-04-17T01:01:41.697Z,9.316711426
2023-04-17T01:02:43.266Z,9.306640625
2023-04-17T01:03:44.260Z,9.306640625
2023-04-17T01:04:45.607Z,9.316711426
2023-04-17T01:05:46.408Z,9.316711426
2023-04-17T01:06:47.299Z,9.316711426
2023-04-17T01:07:49.089Z,9.316711426
2023-04-17T01:08:49.980Z,9.316711426
2023-04-17T01:09:51.477Z,9.336853027
2023-04-17T01:10:53.006Z,9.316711426
2023-04-17T01:11:53.844Z,9.316711426
2023-04-17T01:12:55.607Z,9.316711426
2023-04-17T01:13:56.544Z,9.306640625
2023-04-17T01:14:58.126Z,9.306640625
2023-04-17T01:15:59.022Z,9.266357422
2023-04-17T01:16:59.903Z,9.256286621
2023-04-17T01:18:01.574Z,9.306640625
2023-04-17T01:19:02.428Z,9.306640625
2023-04-17T01:20:03.395Z,9.296569824
2023-04-17T01:21:04.333Z,9.336853027
2023-04-17T01:22:36.596Z,9.336853027
2023-04-17T01:23:37.500Z,9.336853027
2023-04-17T01:24:38.346Z,9.316711426
2023-04-17T01:25:40.261Z,9.316711426
2023-04-17T01:26:41.220Z,9.316711426
2023-04-17T01:27:43.120Z,9.336853027
2023-04-17T01:28:44.112Z,9.306640625
2023-04-17T01:29:45.101Z,9.296569824
2023-04-17T01:30:46.044Z,9.296569824
2023-04-17T01:31:46.957Z,9.256286621
2023-04-17T01:32:48.665Z,9.256286621
2023-04-17T01:33:49.469Z,9.266357422
2023-04-17T01:34:51.094Z,9.306640625
2023-04-17T01:35:52.640Z,9.306640625
2023-04-17T01:36:53.653Z,9.306640625
2023-04-17T01:37:55.595Z,9.306640625
2023-04-17T01:38:56.404Z,9.306640625
2023-04-17T01:39:58.077Z,9.306640625
2023-04-17T01:40:58.983Z,9.306640625
2023-04-17T01:42:00.645Z,9.296569824
2023-04-17T01:43:01.709Z,9.306640625
2023-04-17T01:44:02.677Z,9.296569824
2023-04-17T01:45:04.241Z,9.266357422
2023-04-17T01:46:35.776Z,9.266357422
2023-04-17T01:47:37.748Z,9.296569824
2023-04-17T01:48:39.069Z,9.316711426
2023-04-17T01:49:39.990Z,9.316711426
2023-04-17T01:50:40.921Z,9.316711426
2023-04-17T01:51:41.811Z,9.296569824
2023-04-17T01:52:43.615Z,9.296569824
2023-04-17T01:53:44.556Z,9.266357422
2023-04-17T01:54:45.478Z,9.266357422
2023-04-17T01:55:47.166Z,9.266357422
2023-04-17T01:56:48.556Z,9.256286621
2023-04-17T01:57:50.088Z,9.256286621
2023-04-17T01:58:50.912Z,9.23614502
2023-04-17T01:59:52.510Z,9.256286621
2023-04-17T02:00:53.518Z,9.256286621
2023-04-17T02:01:54.435Z,9.296569824
2023-04-17T02:02:56.217Z,9.296569824
2023-04-17T02:03:57.332Z,9.306640625
2023-04-17T02:04:58.028Z,9.306640625
2023-04-17T02:05:59.594Z,9.296569824
2023-04-17T02:07:01.088Z,9.296569824
2023-04-17T02:08:02.115Z,9.306640625
2023-04-17T02:09:03.573Z,9.306640625
2023-04-17T02:10:36.070Z,9.296569824
2023-04-17T02:11:36.985Z,9.256286621
2023-04-17T02:12:37.906Z,9.23614502
2023-04-17T02:13:38.668Z,9.216003418
2023-04-17T02:14:39.647Z,9.195861816
2023-04-17T02:15:41.696Z,9.165649414
2023-04-17T02:16:43.903Z,9.125366211
2023-04-17T02:17:45.678Z,9.11529541
2023-04-17T02:18:46.432Z,9.095153809
2023-04-17T02:19:47.296Z,9.075012207
2023-04-17T02:20:48.348Z,9.095153809
2023-04-17T02:21:49.404Z,9.11529541
2023-04-17T02:22:51.109Z,9.125366211
2023-04-17T02:23:52.784Z,9.125366211
2023-04-17T02:24:54.514Z,9.125366211
2023-04-17T02:25:56.154Z,9.095153809
2023-04-17T02:26:57.112Z,9.075012207
2023-04-17T02:27:58.666Z,9.064941406
2023-04-17T02:28:59.522Z,9.075012207
2023-04-17T02:30:01.069Z,9.11529541
2023-04-17T02:31:02.151Z,9.095153809
2023-04-17T02:32:03.020Z,9.075012207
2023-04-17T02:33:35.158Z,9.11529541
2023-04-17T02:34:36.071Z,9.145507813
2023-04-17T02:35:37.625Z,9.155578613
2023-04-17T02:36:38.611Z,9.125366211
2023-04-17T02:37:40.171Z,9.125366211
2023-04-17T02:38:41.600Z,9.145507813
2023-04-17T02:39:43.079Z,9.11529541
2023-04-17T02:40:45.140Z,9.075012207
2023-04-17T02:41:46.236Z,9.095153809
2023-04-17T02:42:47.353Z,9.075012207
2023-04-17T02:43:49.166Z,9.075012207
2023-04-17T02:44:50.091Z,9.095153809
2023-04-17T02:45:51.611Z,9.075012207
2023-04-17T02:46:53.281Z,9.075012207
2023-04-17T02:47:55.304Z,9.075012207
2023-04-17T02:48:56.003Z,9.075012207
2023-04-17T02:49:57.500Z,9.095153809
2023-04-17T02:50:58.453Z,9.095153809
2023-04-17T02:52:00.168Z,9.125366211
2023-04-17T02:53:01.197Z,9.095153809
2023-04-17T02:54:02.636Z,9.11529541
2023-04-17T02:55:03.536Z,9.075012207
2023-04-17T02:56:35.624Z,9.075012207
2023-04-17T02:57:37.212Z,9.044799805
2023-04-17T02:58:38.097Z,9.064941406
2023-04-17T02:59:39.045Z,9.044799805
2023-04-17T03:00:40.012Z,9.064941406
2023-04-17T03:01:41.067Z,9.095153809
2023-04-17T03:02:42.786Z,9.11529541
2023-04-17T03:03:43.958Z,9.11529541
2023-04-17T03:04:44.680Z,9.11529541
2023-04-17T03:05:46.154Z,9.11529541
2023-04-17T03:06:47.053Z,9.145507813
2023-04-17T03:07:48.608Z,9.125366211
2023-04-17T03:08:49.532Z,9.145507813
2023-04-17T03:09:51.271Z,9.145507813
2023-04-17T03:10:53.186Z,9.125366211
2023-04-17T03:11:54.325Z,9.125366211
2023-04-17T03:12:56.119Z,9.125366211
2023-04-17T03:13:57.644Z,9.145507813
2023-04-17T03:14:59.109Z,9.145507813
2023-04-17T03:16:00.775Z,9.155578613
2023-04-17T03:17:01.627Z,9.155578613
2023-04-17T03:18:03.060Z,9.155578613
2023-04-17T03:19:35.000Z,9.095153809
2023-04-17T03:20:36.628Z,9.075012207
2023-04-17T03:21:37.733Z,9.044799805
2023-04-17T03:22:39.654Z,9.044799805
2023-04-17T03:23:40.489Z,9.044799805
2023-04-17T03:24:41.394Z,9.034729004
2023-04-17T03:25:43.142Z,9.034729004
2023-04-17T03:26:44.291Z,9.064941406
2023-04-17T03:27:46.096Z,9.044799805
2023-04-17T03:28:46.998Z,9.044799805
2023-04-17T03:29:47.978Z,9.064941406
2023-04-17T03:30:48.781Z,9.044799805
2023-04-17T03:31:49.824Z,9.034729004
2023-04-17T03:32:51.820Z,9.014587402
2023-04-17T03:33:52.640Z,9.014587402
2023-04-17T03:34:53.475Z,9.014587402
2023-04-17T03:35:55.126Z,9.034729004
2023-04-17T03:36:56.116Z,9.034729004
2023-04-17T03:37:57.043Z,9.044799805
2023-04-17T03:38:58.460Z,9.014587402
2023-04-17T03:40:00.260Z,9.034729004
2023-04-17T03:41:02.111Z,9.044799805
2023-04-17T03:42:03.583Z,9.044799805
2023-04-17T03:43:35.573Z,9.064941406
2023-04-17T03:44:36.783Z,9.064941406
2023-04-17T03:45:37.802Z,9.075012207
2023-04-17T03:46:39.604Z,9.095153809
2023-04-17T03:47:41.150Z,9.125366211
2023-04-17T03:48:41.960Z,9.11529541
2023-04-17T03:49:42.865Z,9.145507813
2023-04-17T03:50:44.676Z,9.145507813
2023-04-17T03:51:45.570Z,9.155578613
2023-04-17T03:52:47.131Z,9.155578613
2023-04-17T03:53:48.141Z,9.145507813
2023-04-17T03:54:49.040Z,9.145507813
2023-04-17T03:55:51.300Z,9.155578613
2023-04-17T03:56:52.223Z,9.145507813
2023-04-17T03:57:54.133Z,9.125366211
2023-04-17T03:58:55.637Z,9.11529541
2023-04-17T03:59:56.452Z,9.11529541
2023-04-17T04:00:57.408Z,9.11529541
2023-04-17T04:01:58.569Z,9.075012207
2023-04-17T04:03:00.134Z,9.075012207
2023-04-17T04:04:01.067Z,9.064941406
2023-04-17T04:05:02.640Z,9.044799805
2023-04-17T04:06:34.797Z,9.064941406
2023-04-17T04:07:35.826Z,9.075012207
2023-04-17T04:08:37.493Z,9.095153809
2023-04-17T04:09:38.418Z,9.11529541
2023-04-17T04:10:40.145Z,9.125366211
2023-04-17T04:11:41.040Z,9.125366211
2023-04-17T04:12:42.681Z,9.145507813
2023-04-17T04:13:44.148Z,9.11529541
2023-04-17T04:14:47.448Z,9.145507813
2023-04-17T04:15:48.538Z,9.145507813
2023-04-17T04:16:50.128Z,9.125366211
2023-04-17T04:17:51.760Z,9.145507813
2023-04-17T04:18:52.458Z,9.155578613
2023-04-17T04:19:53.317Z,9.11529541
2023-04-17T04:20:54.299Z,9.145507813
2023-04-17T04:21:55.254Z,9.145507813
2023-04-17T04:22:57.068Z,9.145507813
2023-04-17T04:23:57.864Z,9.11529541
2023-04-17T04:24:58.734Z,9.145507813
2023-04-17T04:25:59.714Z,9.155578613
2023-04-17T04:27:01.597Z,9.125366211
2023-04-17T04:28:03.656Z,9.125366211
2023-04-17T04:29:36.077Z,9.145507813
2023-04-17T04:30:37.642Z,9.125366211
2023-04-17T04:31:38.824Z,9.11529541
2023-04-17T04:32:40.678Z,9.11529541
2023-04-17T04:33:41.516Z,9.125366211
2023-04-17T04:34:42.484Z,9.11529541
2023-04-17T04:35:43.950Z,9.125366211
2023-04-17T04:36:45.665Z,9.125366211
2023-04-17T04:37:47.272Z,9.125366211
2023-04-17T04:38:48.113Z,9.11529541
2023-04-17T04:39:49.589Z,9.095153809
2023-04-17T04:40:51.628Z,9.11529541
2023-04-17T04:41:52.625Z,9.11529541
2023-04-17T04:42:54.126Z,9.11529541
2023-04-17T04:43:55.066Z,9.125366211
2023-04-17T04:44:56.062Z,9.11529541
2023-04-17T04:45:57.117Z,9.095153809
2023-04-17T04:46:58.619Z,9.075012207
2023-04-17T04:48:00.184Z,9.064941406
2023-04-17T04:49:01.638Z,9.064941406
2023-04-17T04:50:03.007Z,9.064941406
2023-04-17T04:51:34.410Z,9.044799805
2023-04-17T04:52:38.318Z,9.014587402
2023-04-17T04:53:40.170Z,9.004516602
2023-04-17T04:54:41.606Z,8.964233398
2023-04-17T04:55:42.554Z,8.944091797
2023-04-17T04:56:44.707Z,8.934020996
2023-04-17T04:57:45.654Z,8.944091797
2023-04-17T04:58:47.142Z,8.944091797
2023-04-17T04:59:48.042Z,8.984375
2023-04-17T05:00:49.149Z,9.004516602
2023-04-17T05:01:50.010Z,9.014587402
2023-04-17T05:02:51.828Z,8.984375
2023-04-17T05:03:52.914Z,8.984375
2023-04-17T05:04:53.579Z,9.014587402
2023-04-17T05:05:54.674Z,9.014587402
2023-04-17T05:06:56.732Z,9.004516602
2023-04-17T05:07:58.584Z,8.984375
2023-04-17T05:08:59.846Z,9.004516602
2023-04-17T05:10:01.016Z,8.984375
2023-04-17T05:11:33.459Z,8.984375
2023-04-17T05:12:34.349Z,8.984375
2023-04-17T05:13:36.028Z,8.964233398
2023-04-17T05:14:37.038Z,8.944091797
2023-04-17T05:15:38.601Z,8.974304199
2023-04-17T05:16:40.167Z,8.964233398
2023-04-17T05:17:41.096Z,8.964233398
2023-04-17T05:18:42.626Z,8.944091797
2023-04-17T05:19:44.324Z,8.944091797
2023-04-17T05:20:45.227Z,8.944091797
2023-04-17T05:21:46.195Z,8.934020996
2023-04-17T05:22:48.095Z,8.934020996
2023-04-17T05:23:48.975Z,8.913879395
2023-04-17T05:24:49.917Z,8.964233398
2023-04-17T05:25:51.026Z,9.034729004
2023-04-17T05:26:52.670Z,9.064941406
2023-04-17T05:27:53.777Z,9.064941406
2023-04-17T05:28:55.588Z,9.064941406
2023-04-17T05:29:56.534Z,9.064941406
2023-04-17T05:30:57.511Z,9.034729004
2023-04-17T05:31:59.198Z,9.004516602
2023-04-17T05:33:00.693Z,9.004516602
2023-04-17T05:34:01.522Z,8.964233398
2023-04-17T05:35:33.076Z,8.934020996
2023-04-17T05:36:34.031Z,8.883666992
2023-04-17T05:37:38.001Z,8.893737793
2023-04-17T05:38:39.635Z,8.863525391
2023-04-17T05:39:41.114Z,8.833312988
2023-04-17T05:40:43.188Z,8.823242188
2023-04-17T05:41:44.359Z,8.823242188
2023-04-17T05:42:45.258Z,8.823242188
2023-04-17T05:43:47.022Z,8.823242188
2023-04-17T05:44:48.707Z,8.803100586
2023-04-17T05:45:49.797Z,8.803100586
2023-04-17T05:46:50.632Z,8.803100586
2023-04-17T05:47:52.160Z,8.803100586
2023-04-17T05:48:53.555Z,8.803100586
2023-04-17T05:49:54.455Z,8.823242188
2023-04-17T05:50:55.427Z,8.833312988
2023-04-17T05:51:56.458Z,8.85345459
2023-04-17T05:52:58.092Z,8.833312988
2023-04-17T05:53:58.983Z,8.823242188
2023-04-17T05:54:59.855Z,8.803100586
2023-04-17T05:56:00.794Z,8.823242188
2023-04-17T05:57:03.196Z,8.833312988
2023-04-17T05:58:35.149Z,8.823242188
2023-04-17T05:59:35.972Z,8.823242188
2023-04-17T06:00:36.924Z,8.803100586
2023-04-17T06:01:37.890Z,8.833312988
2023-04-17T06:02:38.959Z,8.833312988
2023-04-17T06:03:40.855Z,8.823242188
2023-04-17T06:04:42.102Z,8.823242188
2023-04-17T06:05:42.787Z,8.823242188
2023-04-17T06:06:44.085Z,8.803100586
2023-04-17T06:07:45.595Z,8.803100586
2023-04-17T06:08:47.126Z,8.823242188
2023-04-17T06:09:48.679Z,8.803100586
2023-04-17T06:10:50.157Z,8.793029785
2023-04-17T06:11:51.033Z,8.803100586
2023-04-17T06:12:52.534Z,8.803100586
2023-04-17T06:13:54.254Z,8.803100586
2023-04-17T06:14:55.182Z,8.823242188
2023-04-17T06:15:56.205Z,8.85345459
2023-04-17T06:16:58.196Z,8.863525391
2023-04-17T06:17:59.764Z,8.883666992
2023-04-17T06:19:00.544Z,8.913879395
2023-04-17T06:20:01.857Z,8.944091797
2023-04-17T06:21:33.472Z,8.974304199
2023-04-17T06:22:34.449Z,9.004516602
2023-04-17T06:23:36.088Z,9.014587402
2023-04-17T06:24:37.100Z,9.014587402
2023-04-17T06:25:38.358Z,9.034729004
2023-04-17T06:26:39.356Z,9.044799805
2023-04-17T06:27:41.043Z,9.075012207
2023-04-17T06:28:42.489Z,9.075012207
2023-04-17T06:29:43.330Z,9.095153809
2023-04-17T06:30:44.391Z,9.095153809
2023-04-17T06:31:45.300Z,9.11529541
2023-04-17T06:32:47.232Z,9.125366211
2023-04-17T06:33:48.009Z,9.125366211
2023-04-17T06:34:59.197Z,9.155578613
2023-04-17T06:35:50.471Z,9.195861816
2023-04-17T06:36:51.476Z,9.216003418
2023-04-17T06:37:53.079Z,9.226074219
2023-04-17T06:38:55.101Z,9.256286621
2023-04-17T06:39:56.581Z,9.266357422
2023-04-17T06:40:57.615Z,9.266357422
2023-04-17T06:41:58.720Z,9.296569824
2023-04-17T06:43:00.654Z,9.306640625
2023-04-17T06:44:32.276Z,9.336853027
2023-04-17T06:45:33.224Z,9.316711426
2023-04-17T06:46:35.164Z,9.336853027
2023-04-17T06:47:37.147Z,9.346923828
2023-04-17T06:48:37.990Z,9.336853027
2023-04-17T06:49:39.629Z,9.346923828
2023-04-17T06:50:40.635Z,9.346923828
2023-04-17T06:51:41.590Z,9.346923828
2023-04-17T06:52:42.478Z,9.37713623
2023-04-17T06:53:44.198Z,9.37713623
2023-04-17T06:54:45.048Z,9.37713623
2023-04-17T06:55:46.171Z,9.397277832
2023-04-17T06:56:47.175Z,9.417419434
2023-04-17T06:57:49.156Z,9.417419434
2023-04-17T06:58:50.612Z,9.447631836
2023-04-17T06:59:52.086Z,9.477844238
2023-04-17T07:00:53.029Z,9.487915039
2023-04-17T07:01:54.826Z,9.487915039
2023-04-17T07:02:56.757Z,9.487915039
2023-04-17T07:03:57.575Z,9.487915039
2023-04-17T07:04:58.542Z,9.487915039
2023-04-17T07:05:59.360Z,9.49798584
2023-04-17T07:07:00.388Z,9.487915039
2023-04-17T07:08:32.525Z,9.487915039
2023-04-17T07:09:34.460Z,9.49798584
2023-04-17T07:10:36.124Z,9.49798584
2023-04-17T07:11:37.138Z,9.477844238
2023-04-17T07:12:38.207Z,9.417419434
2023-04-17T07:13:40.131Z,9.407348633
2023-04-17T07:14:41.637Z,9.36706543
2023-04-17T07:15:42.581Z,9.36706543
2023-04-17T07:16:43.587Z,9.346923828
2023-04-17T07:17:45.242Z,9.346923828
2023-04-17T07:18:46.184Z,9.336853027
2023-04-17T07:19:47.013Z,9.346923828
2023-04-17T07:20:47.884Z,9.36706543
2023-04-17T07:21:48.824Z,9.397277832
2023-04-17T07:22:50.623Z,9.417419434
2023-04-17T07:23:51.496Z,9.477844238
2023-04-17T07:24:53.221Z,9.487915039
2023-04-17T07:25:55.181Z,9.518127441
2023-04-17T07:26:57.104Z,9.49798584
2023-04-17T07:27:58.509Z,9.518127441
2023-04-17T07:28:59.992Z,9.558410645
2023-04-17T07:30:31.829Z,9.578552246
2023-04-17T07:31:32.844Z,9.598693848
2023-04-17T07:32:34.105Z,9.62890625
2023-04-17T07:33:36.915Z,9.649047852
2023-04-17T07:34:36.561Z,9.679260254
2023-04-17T07:35:38.126Z,9.709472656
2023-04-17T07:36:39.622Z,9.749755859
2023-04-17T07:37:41.117Z,9.769897461
2023-04-17T07:38:42.036Z,9.769897461
2023-04-17T07:39:44.138Z,9.800109863
2023-04-17T07:40:45.132Z,9.769897461
2023-04-17T07:41:45.951Z,9.739685059
2023-04-17T07:42:46.807Z,9.709472656
2023-04-17T07:43:48.654Z,9.669189453
2023-04-17T07:44:49.692Z,9.649047852
2023-04-17T07:45:50.718Z,9.618835449
2023-04-17T07:46:51.743Z,9.578552246
2023-04-17T07:47:53.195Z,9.578552246
2023-04-17T07:48:54.210Z,9.558410645
2023-04-17T07:49:56.223Z,9.558410645
2023-04-17T07:50:57.276Z,9.558410645
2023-04-17T07:51:58.155Z,9.598693848
2023-04-17T07:52:59.569Z,9.618835449
2023-04-17T07:54:01.612Z,9.649047852
2023-04-17T07:55:33.178Z,9.669189453
2023-04-17T07:56:34.131Z,9.699401855
2023-04-17T07:57:35.140Z,9.709472656
2023-04-17T07:58:36.786Z,9.699401855
2023-04-17T07:59:37.737Z,9.699401855
2023-04-17T08:00:39.602Z,9.729614258
2023-04-17T08:01:41.267Z,9.739685059
2023-04-17T08:02:42.217Z,9.749755859
2023-04-17T08:03:44.075Z,9.769897461
2023-04-17T08:04:45.716Z,9.800109863
2023-04-17T08:05:47.402Z,9.850463867
2023-04-17T08:06:48.379Z,9.850463867
2023-04-17T08:07:49.442Z,9.860534668
2023-04-17T08:08:51.225Z,9.860534668
2023-04-17T08:09:53.318Z,9.860534668
2023-04-17T08:10:54.460Z,9.88067627
2023-04-17T08:11:57.878Z,9.910888672
2023-04-17T08:12:57.099Z,9.910888672
2023-04-17T08:13:58.124Z,9.89074707
2023-04-17T08:14:59.679Z,9.88067627
2023-04-17T08:16:31.442Z,9.89074707
2023-04-17T08:17:32.657Z,9.910888672
2023-04-17T08:18:34.001Z,9.920959473
2023-04-17T08:19:34.783Z,9.951171875
2023-04-17T08:20:36.648Z,9.981384277
2023-04-17T08:21:37.662Z,9.991455078
2023-04-17T08:22:39.155Z,10.02166748
2023-04-17T08:23:40.608Z,10.02166748
2023-04-17T08:24:41.579Z,10.02166748
2023-04-17T08:25:42.650Z,10.04180908
2023-04-17T08:26:44.152Z,10.02166748
2023-04-17T08:27:45.188Z,10.02166748
2023-04-17T08:28:47.167Z,10.06195068
2023-04-17T08:29:48.158Z,10.07202148
2023-04-17T08:30:49.661Z,10.10223389
2023-04-17T08:31:57.455Z,10.07202148
2023-04-17T08:32:52.124Z,10.07202148
2023-04-17T08:34:06.193Z,10.09216309
2023-04-17T08:34:54.093Z,10.09216309
2023-04-17T08:35:54.975Z,10.10223389
2023-04-17T08:36:55.977Z,10.10223389
2023-04-17T08:37:57.614Z,10.11230469
2023-04-17T08:38:58.396Z,10.09216309
2023-04-17T08:40:00.627Z,10.04180908
2023-04-17T08:41:32.569Z,10.04180908
2023-04-17T08:42:33.639Z,10.04180908
2023-04-17T08:43:35.030Z,9.981384277
2023-04-17T08:44:35.941Z,9.961242676
2023-04-17T08:45:36.732Z,9.991455078
2023-04-17T08:46:37.629Z,10.02166748
2023-04-17T08:47:38.460Z,10.04180908
2023-04-17T08:48:40.082Z,10.04180908
2023-04-17T08:49:40.963Z,10.09216309
2023-04-17T08:50:42.644Z,10.07202148
2023-04-17T08:51:43.942Z,10.07202148
2023-04-17T08:52:45.585Z,10.09216309
2023-04-17T08:53:46.433Z,10.10223389
2023-04-17T08:54:50.611Z,10.11230469
2023-04-17T08:55:49.131Z,10.13244629
2023-04-17T08:56:50.247Z,10.17272949
2023-04-17T08:57:52.169Z,10.2230835
2023-04-17T08:58:53.274Z,10.2633667
2023-04-17T08:59:54.501Z,10.3137207
2023-04-17T09:00:55.637Z,10.34393311
2023-04-17T09:01:57.096Z,10.36407471
2023-04-17T09:02:59.070Z,10.42449951
2023-04-17T09:04:31.255Z,10.39428711
2023-04-17T09:05:32.103Z,10.39428711
2023-04-17T09:06:33.346Z,10.39428711
2023-04-17T09:07:34.430Z,10.42449951
2023-04-17T09:08:36.013Z,10.43457031
2023-04-17T09:09:37.029Z,10.44464111
2023-04-17T09:10:38.575Z,10.47485352
2023-04-17T09:11:40.420Z,10.50506592
2023-04-17T09:12:41.388Z,10.53527832
2023-04-17T09:13:43.117Z,10.57556152
2023-04-17T09:14:44.198Z,10.61584473
2023-04-17T09:15:45.529Z,10.64605713
2023-04-17T09:16:47.900Z,10.67626953
2023-04-17T09:17:49.161Z,10.69641113
2023-04-17T09:18:50.603Z,10.69641113
2023-04-17T09:19:51.885Z,10.72662354
2023-04-17T09:20:53.853Z,10.74676514
2023-04-17T09:21:55.390Z,10.74676514
2023-04-17T09:22:57.021Z,10.75683594
2023-04-17T09:23:57.993Z,10.79711914
2023-04-17T09:24:59.777Z,10.87768555
2023-04-17T09:26:32.129Z,10.93811035
2023-04-17T09:27:33.580Z,10.98846436
2023-04-17T09:28:35.042Z,11.04888916
2023-04-17T09:29:36.453Z,11.08917236
2023-04-17T09:30:37.303Z,11.12945557
2023-04-17T09:31:38.196Z,11.16973877
2023-04-17T09:32:38.886Z,11.18988037
2023-04-17T09:33:40.493Z,11.18988037
2023-04-17T09:34:41.422Z,11.16973877
2023-04-17T09:35:42.357Z,11.11938477
2023-04-17T09:36:44.165Z,11.10931396
2023-04-17T09:37:45.636Z,11.07910156
2023-04-17T09:38:46.403Z,11.05895996
2023-04-17T09:39:48.034Z,11.05895996
2023-04-17T09:40:49.644Z,11.02874756
2023-04-17T09:41:51.101Z,11.05895996
2023-04-17T09:42:52.580Z,11.10931396
2023-04-17T09:43:53.457Z,11.16973877
2023-04-17T09:44:55.112Z,11.26037598
2023-04-17T09:45:55.982Z,11.31072998
2023-04-17T09:46:56.894Z,11.36108398
2023-04-17T09:47:58.665Z,11.38122559
2023-04-17T09:48:59.872Z,11.31072998
2023-04-17T09:50:31.401Z,11.30065918
2023-04-17T09:51:33.054Z,11.30065918
2023-04-17T09:52:34.548Z,11.27044678
2023-04-17T09:53:35.393Z,11.26037598
2023-04-17T09:54:37.265Z,11.18988037
2023-04-17T09:55:38.493Z,11.15966797
2023-04-17T09:56:39.215Z,11.07910156
2023-04-17T09:57:40.499Z,11.01867676
2023-04-17T09:58:41.567Z,10.93811035
2023-04-17T09:59:42.466Z,10.89782715
2023-04-17T10:00:43.457Z,10.86761475
2023-04-17T10:01:45.455Z,10.83740234
2023-04-17T10:02:46.464Z,10.82733154
2023-04-17T10:03:48.412Z,10.77697754
2023-04-17T10:04:48.945Z,10.74676514
2023-04-17T10:05:50.604Z,10.72662354
2023-04-17T10:06:51.510Z,10.69641113
2023-04-17T10:07:52.273Z,10.68634033
2023-04-17T10:08:54.238Z,10.69641113
2023-04-17T10:09:56.082Z,10.69641113
2023-04-17T10:10:56.990Z,10.72662354
2023-04-17T10:11:58.563Z,10.75683594
2023-04-17T10:13:00.585Z,10.80718994
2023-04-17T10:14:31.875Z,10.82733154
2023-04-17T10:15:33.558Z,10.86761475
2023-04-17T10:16:34.657Z,10.92803955
2023-04-17T10:17:35.268Z,10.97839355
2023-04-17T10:18:36.966Z,11.01867676
2023-04-17T10:19:38.873Z,11.07910156
2023-04-17T10:20:39.795Z,11.12945557
2023-04-17T10:21:41.608Z,11.18988037
2023-04-17T10:22:42.449Z,11.23016357
2023-04-17T10:23:44.168Z,11.23016357
2023-04-17T10:24:46.144Z,11.28051758
2023-04-17T10:25:47.111Z,11.35101318
2023-04-17T10:26:48.574Z,11.39129639
2023-04-17T10:27:49.356Z,11.44165039
2023-04-17T10:28:51.115Z,11.46179199
2023-04-17T10:29:52.053Z,11.48193359
2023-04-17T10:30:52.928Z,11.49200439
2023-04-17T10:31:54.578Z,11.512146
2023-04-17T10:32:55.402Z,11.48193359
2023-04-17T10:33:57.084Z,11.512146
2023-04-17T10:34:58.638Z,11.49200439
2023-04-17T10:36:31.029Z,11.44165039
2023-04-17T10:37:31.847Z,11.42150879
2023-04-17T10:38:32.801Z,11.42150879
2023-04-17T10:39:34.668Z,11.39129639
2023-04-17T10:40:36.134Z,11.33087158
2023-04-17T10:41:37.604Z,11.30065918
2023-04-17T10:42:38.850Z,11.27044678
2023-04-17T10:43:40.086Z,11.26037598
2023-04-17T10:44:42.132Z,11.21002197
2023-04-17T10:45:43.121Z,11.18988037
2023-04-17T10:46:44.591Z,11.10931396
2023-04-17T10:47:45.493Z,11.05895996
2023-04-17T10:48:46.615Z,11.00860596
2023-04-17T10:49:47.499Z,10.93811035
2023-04-17T10:50:48.413Z,10.86761475
2023-04-17T10:51:50.157Z,10.85754395
2023-04-17T10:52:51.093Z,10.80718994
2023-04-17T10:53:54.590Z,10.79711914
2023-04-17T10:54:55.704Z,10.75683594
2023-04-17T10:55:56.612Z,10.74676514
2023-04-17T10:56:57.457Z,10.74676514
2023-04-17T10:57:58.448Z,10.75683594
2023-04-17T10:59:30.325Z,10.74676514
2023-04-17T11:00:31.286Z,10.75683594
2023-04-17T11:01:33.208Z,10.75683594
2023-04-17T11:02:34.110Z,10.77697754
2023-04-17T11:03:35.814Z,10.75683594
2023-04-17T11:04:36.782Z,10.75683594
2023-04-17T11:05:38.665Z,10.77697754
2023-04-17T11:06:39.490Z,10.79711914
2023-04-17T11:07:41.095Z,10.79711914
2023-04-17T11:08:41.998Z,10.80718994
2023-04-17T11:09:43.671Z,10.86761475
2023-04-17T11:10:44.538Z,10.90789795
2023-04-17T11:11:46.173Z,10.93811035
2023-04-17T11:12:47.101Z,10.92803955
2023-04-17T11:13:48.012Z,10.93811035
2023-04-17T11:14:49.602Z,10.97839355
2023-04-17T11:15:50.545Z,11.00860596
2023-04-17T11:16:51.472Z,11.02874756
2023-04-17T11:17:52.190Z,11.04888916
2023-04-17T11:18:53.691Z,11.08917236